Brownsville, TX

2:59 AM CST on December 10, 2016 (GMT -0600)
Brownsville-South Padre I International | | Change Station

Elev 20 ft 25.91 °N, 97.42 °W | Updated 6 minutes ago

Overcast
Overcast
47 °F
Feels Like 47 °F
N
10
Wind Variable Wind from NW

Today
High -- | Low -- °F
--% Chance of Precip.
Yesterday
High -- | Low -- °F
Precip. -- in
Pressure 30.39 in
Visibility 10.0 miles
Clouds Scattered Clouds 1000 ft
Mostly Cloudy 2700 ft
Overcast 3400 ft
Dew Point 37 °F
Humidity 68%
Rainfall 0.00 in
Snow Depth Not available.
7:06 AM 5:39 PM
Waxing Gibbous, 82% visible
METAR KBRO 100853Z AUTO 32009KT 10SM SCT010 BKN027 OVC034 08/03 A3039 RMK AO2 SLP291 T00830028 56017
Pressure 30.39 in
Visibility 10.0 miles
Clouds Scattered Clouds 1000 ft
Mostly Cloudy 2700 ft
Overcast 3400 ft
Dew Point 37 °F
Humidity 68%
Rainfall 0.00 in
Snow Depth Not available.
7:06 AM 5:39 PM
Waxing Gibbous, 82% visible
METAR KBRO 100853Z AUTO 32009KT 10SM SCT010 BKN027 OVC034 08/03 A3039 RMK AO2 SLP291 T00830028 56017

10-Day Weather Forecast

Almanac

Astronomy

Dec. 10, 2016 Rise Set
Actual Time
Civil Twilight
Nautical Twilight
Astronomical Twilight
Moon
Length of Visible Light
Length of Day
Tomorrow will be .
, % of the Moon is Illuminated

Today's Extremes

State Highs State Lows

Community

WunderPhotos

Upload Photos

1,956,538 photos uploaded!

WunderBlog® & News

Nearby

Air Quality

  Air Quality AQ Index Pollutant
Not available.

Snow Depth

Station Depth Elevation

Earthquake Activity

City Distance Mag. Time & Date
Minimum magnitude displayed is 2.5.

Coastal Water Temperatures

Place Temperature

Stations

Nearby Weather Stations

Station Location Temp. Windchill Dew Point Humidity Wind Precip. Elev Updated Type
                   

Watches & Warnings

There are currently no watches in effect.